Time;durP1;ratioP1;P1;durP2;ratioP2;P2;SDS_P1;SDS_P2;PMS_P1;PMS_P2;Temp;Humidity;BMP_temperature;BMP_pressure;BME280_temperature;BME280_humidity;BME280_pressure;Samples;Min_cycle;Max_cycle;Signal;HPM_P1;HPM_P2
2024/01/15 00:00:18;;;;;;;0.28;0.28;;;5.60;97.40;;;;;;5003487;28;20026;-79
2024/01/15 00:02:44;;;;;;;2.80;2.28;;;5.60;97.40;;;;;;5004135;28;20030;-79
2024/01/15 00:05:10;;;;;;;0.17;0.17;;;5.70;97.40;;;;;;4999562;28;20042;-78
2024/01/15 00:07:36;;;;;;;0.10;0.10;;;5.70;97.40;;;;;;5003158;28;20056;-79
2024/01/15 00:10:02;;;;;;;2.90;1.30;;;5.70;97.30;;;;;;4999156;28;20564;-79
2024/01/15 00:12:28;;;;;;;0.73;0.73;;;5.80;97.60;;;;;;5003348;28;20030;-79
2024/01/15 00:14:53;;;;;;;3.20;1.35;;;5.80;97.30;;;;;;4994211;28;20038;-78
2024/01/15 00:17:19;;;;;;;1.50;0.77;;;5.80;97.40;;;;;;5001857;28;20088;-78
2024/01/15 00:19:45;;;;;;;0.20;0.20;;;5.70;97.60;;;;;;5010428;28;20478;-79
2024/01/15 00:22:10;;;;;;;0.10;0.10;;;5.60;98.00;;;;;;4974802;28;20128;-79
2024/01/15 00:24:36;;;;;;;1.25;0.85;;;5.60;98.10;;;;;;4996100;28;20968;-78
2024/01/15 00:27:02;;;;;;;0.20;0.20;;;5.70;98.20;;;;;;5004208;28;20030;-79
2024/01/15 00:29:27;;;;;;;1.67;1.45;;;5.70;98.10;;;;;;5003314;28;20040;-78
2024/01/15 00:31:53;;;;;;;0.17;0.17;;;5.70;98.00;;;;;;5004380;28;20033;-78
2024/01/15 00:34:19;;;;;;;0.52;0.52;;;5.80;97.90;;;;;;4998050;28;20634;-79
2024/01/15 00:36:44;;;;;;;0.20;0.20;;;5.80;97.80;;;;;;5003317;28;20030;-78
2024/01/15 00:39:10;;;;;;;1.13;1.02;;;5.90;97.80;;;;;;5008065;28;20113;-79
2024/01/15 00:41:36;;;;;;;0.30;0.30;;;5.90;97.60;;;;;;5005860;28;20087;-78
2024/01/15 00:44:02;;;;;;;3.15;1.25;;;5.90;97.50;;;;;;5005651;28;20045;-78
2024/01/15 00:46:28;;;;;;;0.10;0.10;;;5.90;97.40;;;;;;5006807;28;20030;-79
2024/01/15 00:48:54;;;;;;;0.05;0.05;;;5.90;97.40;;;;;;5003816;28;20636;-78
2024/01/15 00:51:20;;;;;;;0.20;0.20;;;6.00;97.40;;;;;;5002872;28;20107;-79
2024/01/15 00:53:45;;;;;;;0.38;0.38;;;5.90;97.40;;;;;;5003030;28;20034;-79
2024/01/15 00:56:11;;;;;;;0.10;0.10;;;5.90;97.40;;;;;;5001348;28;20737;-78
2024/01/15 00:58:37;;;;;;;0.10;0.10;;;6.00;97.40;;;;;;5002557;28;20037;-79
2024/01/15 01:01:03;;;;;;;0.10;0.10;;;6.00;97.40;;;;;;4999601;28;20034;-79
2024/01/15 01:03:28;;;;;;;0.50;0.50;;;5.90;97.50;;;;;;5002973;28;20494;-79
2024/01/15 01:05:54;;;;;;;0.15;0.15;;;5.90;97.60;;;;;;4983565;28;20033;-79
2024/01/15 01:08:19;;;;;;;0.30;0.30;;;5.80;97.70;;;;;;5001355;28;20109;-79
2024/01/15 01:10:45;;;;;;;0.10;0.10;;;5.80;97.80;;;;;;4999939;28;20034;-79
2024/01/15 01:13:11;;;;;;;0.10;0.10;;;5.80;97.90;;;;;;5011578;28;20042;-79
2024/01/15 01:15:37;;;;;;;0.10;0.10;;;5.80;98.00;;;;;;5002311;28;20179;-79
2024/01/15 01:18:03;;;;;;;0.20;0.20;;;5.80;97.80;;;;;;4974956;28;20069;-78
2024/01/15 01:20:28;;;;;;;0.20;0.20;;;5.80;97.80;;;;;;5002772;28;20073;-79
2024/01/15 01:22:54;;;;;;;0.93;0.88;;;5.80;97.80;;;;;;4994529;28;20025;-79
2024/01/15 01:25:20;;;;;;;0.05;0.05;;;5.90;97.70;;;;;;4995578;28;20034;-79
2024/01/15 01:27:45;;;;;;;0.10;0.10;;;5.80;98.10;;;;;;4995324;28;20583;-79
2024/01/15 01:30:11;;;;;;;0.10;0.10;;;5.70;98.30;;;;;;4998158;28;20120;-79
2024/01/15 01:32:37;;;;;;;0.10;0.10;;;5.70;98.20;;;;;;5002209;28;20049;-78
2024/01/15 01:35:03;;;;;;;1.20;1.10;;;5.70;98.10;;;;;;4999669;28;20683;-79
2024/01/15 01:37:29;;;;;;;0.20;0.20;;;5.60;98.30;;;;;;5002497;28;20082;-79
2024/01/15 01:39:55;;;;;;;0.30;0.30;;;5.50;98.80;;;;;;5000846;28;20582;-79
2024/01/15 01:42:20;;;;;;;0.10;0.10;;;5.50;98.80;;;;;;5002224;28;20075;-79
2024/01/15 01:44:46;;;;;;;0.10;0.10;;;5.50;98.70;;;;;;5009833;28;20057;-78
2024/01/15 01:47:14;;;;;;;0.10;0.10;;;5.50;99.00;;;;;;4996607;28;20065;-78
2024/01/15 01:49:41;;;;;;;0.20;0.20;;;5.70;98.70;;;;;;5001634;28;20022;-79
2024/01/15 01:52:09;;;;;;;;;;;5.70;98.40;;;;;;4999909;28;20121;-79
2024/01/15 01:54:36;;;;;;;0.10;0.10;;;5.80;98.40;;;;;;5002155;28;19948;-79
2024/01/15 01:57:03;;;;;;;;;;;5.80;98.30;;;;;;5004802;28;20040;-80
2024/01/15 01:59:30;;;;;;;;;;;5.80;98.30;;;;;;4999758;28;20469;-79
2024/01/15 02:01:56;;;;;;;0.10;0.10;;;5.80;98.20;;;;;;5008574;28;19932;-79
2024/01/15 02:04:25;;;;;;;0.10;0.10;;;5.70;98.20;;;;;;4976214;28;20030;-79
2024/01/15 02:06:51;;;;;;;0.30;0.30;;;5.70;98.20;;;;;;4992878;28;20034;-79
2024/01/15 02:09:20;;;;;;;0.10;0.10;;;5.90;98.10;;;;;;4997495;28;20041;-79
2024/01/15 02:11:49;;;;;;;0.55;0.55;;;5.90;97.90;;;;;;5002354;28;20033;-79
2024/01/15 02:14:14;;;;;;;0.10;0.10;;;5.80;97.90;;;;;;5006173;28;20026;-79
2024/01/15 02:16:40;;;;;;;0.32;0.32;;;5.70;98.20;;;;;;5007562;28;20038;-79
2024/01/15 02:19:06;;;;;;;0.43;0.43;;;5.70;98.30;;;;;;4999583;28;20490;-79
2024/01/15 02:21:32;;;;;;;0.98;0.98;;;5.60;98.30;;;;;;4997867;28;20724;-79
2024/01/15 02:23:58;;;;;;;0.80;0.80;;;5.50;98.80;;;;;;5003268;28;20022;-79
2024/01/15 02:26:24;;;;;;;2.70;1.30;;;5.50;99.40;;;;;;4998351;28;20515;-79
2024/01/15 02:28:51;;;;;;;0.20;0.20;;;5.40;99.60;;;;;;5000994;28;20056;-79
2024/01/15 02:31:17;;;;;;;0.65;0.65;;;5.40;99.90;;;;;;5000589;28;20037;-79
2024/01/15 02:33:43;;;;;;;0.10;0.10;;;5.40;99.80;;;;;;4999340;28;20045;-79
2024/01/15 02:36:10;;;;;;;0.28;0.28;;;5.50;99.80;;;;;;5003717;28;20034;-79
2024/01/15 02:38:36;;;;;;;0.10;0.10;;;5.50;99.60;;;;;;4989342;28;20120;-81
2024/01/15 02:41:01;;;;;;;0.13;0.13;;;5.50;99.50;;;;;;4999836;28;20031;-80
2024/01/15 02:43:27;;;;;;;0.05;0.05;;;5.60;99.60;;;;;;5005843;28;20056;-80
2024/01/15 02:45:52;;;;;;;0.68;0.68;;;5.60;99.30;;;;;;4998745;28;20112;-79
2024/01/15 02:48:18;;;;;;;0.65;0.65;;;5.50;99.20;;;;;;5004786;28;20108;-80
2024/01/15 02:50:44;;;;;;;0.10;0.10;;;5.50;99.60;;;;;;4984634;28;20038;-80
2024/01/15 02:53:09;;;;;;;0.70;0.50;;;5.30;99.70;;;;;;5010670;28;20033;-80
2024/01/15 02:55:35;;;;;;;2.17;1.98;;;5.20;99.90;;;;;;5008728;28;20026;-80
2024/01/15 02:58:01;;;;;;;0.10;0.10;;;5.10;99.90;;;;;;5011726;28;20037;-80
2024/01/15 03:00:26;;;;;;;1.48;1.42;;;5.10;99.90;;;;;;5008058;28;20030;-80
2024/01/15 03:02:52;;;;;;;0.10;0.10;;;5.00;99.90;;;;;;4997107;28;20041;-80
2024/01/15 03:05:18;;;;;;;1.17;1.08;;;5.00;99.90;;;;;;5001533;28;20061;-81
2024/01/15 03:07:43;;;;;;;0.28;0.28;;;5.00;99.90;;;;;;5011972;28;20773;-80
2024/01/15 03:10:09;;;;;;;0.17;0.17;;;4.90;99.90;;;;;;4979966;28;20092;-80
2024/01/15 03:12:35;;;;;;;0.55;0.55;;;4.90;99.90;;;;;;4979842;28;20713;-80
2024/01/15 03:15:01;;;;;;;0.10;0.10;;;4.80;99.90;;;;;;5006641;28;20547;-80
2024/01/15 03:17:26;;;;;;;0.10;0.10;;;4.70;99.90;;;;;;5006520;28;20076;-80
2024/01/15 03:19:52;;;;;;;0.10;0.10;;;4.70;99.90;;;;;;4999448;28;20076;-79
2024/01/15 03:22:18;;;;;;;0.10;0.10;;;4.60;99.90;;;;;;4987086;28;20104;-80
2024/01/15 03:24:44;;;;;;;0.63;0.63;;;4.70;99.90;;;;;;5002264;28;20049;-80
2024/01/15 03:27:10;;;;;;;0.10;0.10;;;4.70;99.90;;;;;;5001916;28;20061;-81
2024/01/15 03:29:35;;;;;;;0.10;0.10;;;4.60;99.90;;;;;;5007464;28;20536;-80
2024/01/15 03:32:01;;;;;;;0.40;0.40;;;4.60;99.90;;;;;;5004620;28;20425;-80
2024/01/15 03:34:26;;;;;;;0.55;0.55;;;4.70;99.90;;;;;;5001977;28;20492;-81
2024/01/15 03:36:52;;;;;;;0.50;0.50;;;4.70;99.90;;;;;;5001871;28;20075;-80
2024/01/15 03:39:18;;;;;;;0.10;0.10;;;4.90;99.90;;;;;;4985278;28;20448;-79
2024/01/15 03:41:43;;;;;;;1.00;1.00;;;5.00;99.90;;;;;;5002692;28;20041;-79
2024/01/15 03:44:09;;;;;;;0.10;0.10;;;5.20;99.90;;;;;;5001088;28;20545;-78
2024/01/15 03:46:35;;;;;;;0.10;0.10;;;5.30;99.90;;;;;;5002169;28;20037;-79
2024/01/15 03:49:02;;;;;;;4.00;3.67;;;5.30;99.90;;;;;;5003839;28;20136;-79
2024/01/15 03:51:27;;;;;;;0.10;0.10;;;5.30;99.90;;;;;;5006208;28;20535;-78
2024/01/15 03:53:53;;;;;;;0.10;0.10;;;5.20;99.90;;;;;;5001771;28;20026;-80
2024/01/15 03:56:19;;;;;;;0.25;0.25;;;5.30;99.90;;;;;;5004129;28;20030;-79
2024/01/15 03:58:44;;;;;;;2.97;2.72;;;5.30;99.90;;;;;;5010818;28;20041;-79
2024/01/15 04:01:10;;;;;;;0.10;0.10;;;5.30;99.90;;;;;;5003723;28;20374;-79
2024/01/15 04:03:36;;;;;;;0.17;0.17;;;5.40;99.90;;;;;;4981792;28;20453;-80
2024/01/15 04:06:03;;;;;;;0.63;0.63;;;5.40;99.90;;;;;;5006042;28;20175;-79
2024/01/15 04:08:28;;;;;;;3.33;2.30;;;5.30;99.90;;;;;;4997290;28;20026;-79
2024/01/15 04:10:54;;;;;;;3.83;2.58;;;5.30;99.90;;;;;;5010374;28;20041;-80
2024/01/15 04:13:20;;;;;;;0.30;0.30;;;5.30;99.90;;;;;;5005530;28;20099;-80
2024/01/15 04:15:46;;;;;;;0.20;0.20;;;5.40;99.90;;;;;;5001441;28;20041;-79
2024/01/15 04:18:12;;;;;;;0.13;0.13;;;5.30;99.90;;;;;;5005166;28;20045;-80
2024/01/15 04:20:38;;;;;;;0.10;0.10;;;5.30;99.90;;;;;;5004550;28;20049;-79
2024/01/15 04:23:04;;;;;;;0.10;0.10;;;5.40;99.90;;;;;;4995862;28;20014;-79
2024/01/15 04:25:30;;;;;;;0.10;0.10;;;5.30;99.90;;;;;;5001957;28;20282;-80
2024/01/15 04:27:56;;;;;;;0.25;0.25;;;5.40;99.90;;;;;;5004039;28;20068;-80
2024/01/15 04:30:21;;;;;;;0.93;0.93;;;5.30;99.90;;;;;;4999418;28;20473;-80
2024/01/15 04:32:47;;;;;;;1.23;1.20;;;5.40;99.90;;;;;;5005503;28;20034;-79
2024/01/15 04:35:13;;;;;;;0.10;0.10;;;5.40;99.90;;;;;;5000065;28;20033;-80
2024/01/15 04:37:39;;;;;;;0.10;0.10;;;5.40;99.90;;;;;;4999727;28;20053;-79
2024/01/15 04:40:06;;;;;;;0.22;0.22;;;5.30;99.90;;;;;;5002847;28;20041;-80
2024/01/15 04:42:32;;;;;;;0.40;0.40;;;5.40;99.90;;;;;;5005820;28;20049;-81
2024/01/15 04:44:57;;;;;;;0.75;0.75;;;5.40;99.90;;;;;;5004294;28;20026;-80
2024/01/15 04:47:23;;;;;;;8.50;2.53;;;5.40;99.90;;;;;;5010186;28;20107;-79
2024/01/15 04:49:49;;;;;;;0.52;0.52;;;5.30;99.90;;;;;;5004919;28;20029;-80
2024/01/15 04:52:15;;;;;;;0.10;0.10;;;5.30;99.90;;;;;;5000895;28;20081;-81
2024/01/15 04:54:41;;;;;;;0.20;0.20;;;5.40;99.90;;;;;;5001565;28;20039;-79
2024/01/15 04:57:06;;;;;;;0.10;0.10;;;5.40;99.90;;;;;;4994604;28;20033;-80
2024/01/15 04:59:32;;;;;;;0.13;0.13;;;5.40;99.90;;;;;;5003990;28;20293;-81
2024/01/15 05:01:58;;;;;;;0.10;0.10;;;5.20;99.90;;;;;;5001612;28;20022;-80
2024/01/15 05:04:24;;;;;;;1.63;1.52;;;5.30;99.90;;;;;;4995272;28;20572;-80
2024/01/15 05:06:50;;;;;;;1.10;1.00;;;5.30;99.90;;;;;;4995896;28;20025;-80
2024/01/15 05:09:17;;;;;;;0.20;0.20;;;5.20;99.90;;;;;;4996123;28;20034;-80
2024/01/15 05:11:43;;;;;;;0.30;0.30;;;5.10;99.90;;;;;;4996782;28;20509;-80
2024/01/15 05:14:09;;;;;;;0.85;0.85;;;4.90;99.90;;;;;;4996802;28;20064;-80
2024/01/15 05:16:35;;;;;;;0.10;0.10;;;4.80;99.90;;;;;;4998996;28;20585;-80
2024/01/15 05:19:00;;;;;;;0.10;0.10;;;4.90;99.90;;;;;;4998892;28;20037;-80
2024/01/15 05:21:26;;;;;;;1.08;1.08;;;4.80;99.90;;;;;;5001410;28;20042;-81
2024/01/15 05:23:52;;;;;;;0.10;0.10;;;4.80;99.90;;;;;;4999606;28;20026;-83
2024/01/15 05:26:17;;;;;;;0.10;0.10;;;4.80;99.90;;;;;;5001541;28;20123;-84
2024/01/15 05:28:43;;;;;;;0.10;0.10;;;4.60;99.90;;;;;;4997461;28;20032;-81
2024/01/15 05:31:10;;;;;;;0.60;0.52;;;4.50;99.90;;;;;;5000445;28;20492;-81
2024/01/15 05:33:36;;;;;;;;;;;4.50;99.90;;;;;;5007603;28;20572;-82
2024/01/15 05:36:02;;;;;;;0.10;0.10;;;4.60;99.90;;;;;;5000082;28;19967;-84
2024/01/15 05:38:28;;;;;;;0.30;0.30;;;4.80;99.90;;;;;;4982504;28;20473;-83
2024/01/15 05:40:53;;;;;;;0.10;0.10;;;4.90;99.90;;;;;;4995129;28;20037;-82
2024/01/15 05:43:19;;;;;;;1.85;1.75;;;5.00;99.90;;;;;;4998932;28;20486;-83
2024/01/15 05:45:45;;;;;;;0.10;0.10;;;5.20;99.90;;;;;;4998854;28;20485;-81
2024/01/15 05:48:12;;;;;;;1.85;1.75;;;5.30;99.90;;;;;;4996971;28;20686;-80
2024/01/15 05:50:37;;;;;;;0.10;0.10;;;5.10;99.90;;;;;;4998100;28;20113;-80
2024/01/15 05:53:03;;;;;;;0.25;0.25;;;5.10;99.90;;;;;;4986249;28;20033;-82
2024/01/15 05:55:29;;;;;;;0.43;0.43;;;5.20;99.90;;;;;;4995012;28;20105;-81
2024/01/15 05:57:55;;;;;;;0.10;0.10;;;5.10;99.90;;;;;;4988191;28;20121;-81
2024/01/15 06:00:20;;;;;;;0.28;0.28;;;5.20;99.90;;;;;;4985535;28;20375;-82
2024/01/15 06:02:46;;;;;;;0.38;0.38;;;5.30;99.90;;;;;;4987483;28;20119;-82
2024/01/15 06:05:12;;;;;;;0.38;0.35;;;5.30;99.90;;;;;;4994786;28;20026;-82
2024/01/15 06:07:37;;;;;;;0.10;0.10;;;5.40;99.90;;;;;;4997184;28;20800;-82
2024/01/15 06:10:07;;;;;;;2.63;2.42;;;5.40;99.90;;;;;;4992310;28;20623;-82
2024/01/15 06:12:33;;;;;;;0.40;0.40;;;5.40;99.90;;;;;;4993861;28;20459;-82
2024/01/15 06:14:59;;;;;;;3.50;3.20;;;5.40;99.90;;;;;;4992361;28;20028;-82
2024/01/15 06:17:25;;;;;;;0.10;0.10;;;5.40;99.90;;;;;;4978875;28;20034;-82
2024/01/15 06:19:50;;;;;;;0.20;0.20;;;5.50;99.90;;;;;;4994291;28;20430;-79
2024/01/15 06:22:16;;;;;;;0.20;0.20;;;5.40;99.90;;;;;;4994302;28;20030;-82
2024/01/15 06:24:42;;;;;;;1.05;1.05;;;5.40;99.90;;;;;;4993384;28;20038;-81
2024/01/15 06:27:08;;;;;;;0.10;0.10;;;5.50;99.90;;;;;;4996067;28;20026;-81
2024/01/15 06:29:37;;;;;;;0.70;0.70;;;5.40;99.90;;;;;;4977620;28;20264;-85
2024/01/15 06:32:03;;;;;;;0.82;0.82;;;5.60;99.90;;;;;;4991615;28;20766;-83
2024/01/15 06:34:28;;;;;;;0.20;0.20;;;5.60;99.90;;;;;;4995414;28;20058;-85
2024/01/15 06:36:54;;;;;;;1.23;1.13;;;5.70;99.90;;;;;;5013919;28;20125;-82
2024/01/15 06:39:20;;;;;;;0.28;0.28;;;5.80;99.90;;;;;;5001662;28;20029;-82
2024/01/15 06:41:45;;;;;;;0.10;0.10;;;5.80;99.90;;;;;;5001942;28;20454;-82
2024/01/15 06:44:11;;;;;;;0.22;0.22;;;5.80;99.70;;;;;;5009709;28;20033;-81
2024/01/15 06:46:41;;;;;;;3.80;1.33;;;5.80;99.50;;;;;;5007693;28;20924;-82
2024/01/15 06:49:07;;;;;;;0.43;0.43;;;5.70;99.90;;;;;;5009529;28;20137;-81
2024/01/15 06:51:32;;;;;;;0.10;0.10;;;5.50;99.90;;;;;;5002225;28;20030;-81
2024/01/15 06:53:58;;;;;;;0.50;0.50;;;5.50;99.90;;;;;;5002301;28;20032;-81
2024/01/15 06:56:24;;;;;;;0.30;0.30;;;5.50;99.90;;;;;;5001942;28;20120;-82
2024/01/15 06:58:49;;;;;;;0.40;0.40;;;5.50;99.90;;;;;;5002432;28;20109;-82
2024/01/15 07:01:15;;;;;;;0.10;0.10;;;5.60;99.90;;;;;;5001582;28;20045;-86
2024/01/15 07:03:41;;;;;;;0.45;0.45;;;5.50;99.90;;;;;;5002394;28;20030;-79
2024/01/15 07:06:06;;;;;;;0.10;0.10;;;5.50;99.90;;;;;;5001988;28;20142;-80
2024/01/15 07:08:32;;;;;;;0.17;0.17;;;5.50;99.90;;;;;;5015681;28;20061;-80
2024/01/15 07:10:58;;;;;;;0.20;0.20;;;5.60;99.90;;;;;;5002896;28;20436;-81
2024/01/15 07:13:23;;;;;;;0.10;0.10;;;5.60;99.90;;;;;;5004260;28;20857;-81
2024/01/15 07:15:49;;;;;;;0.10;0.10;;;5.70;99.90;;;;;;5005022;28;20464;-81
2024/01/15 07:18:14;;;;;;;0.68;0.65;;;5.60;99.90;;;;;;5005889;28;20036;-80
2024/01/15 07:20:40;;;;;;;0.25;0.25;;;5.60;99.90;;;;;;5000085;28;20510;-81
2024/01/15 07:23:06;;;;;;;0.08;0.08;;;5.70;99.90;;;;;;5005277;28;20076;-83
2024/01/15 07:25:32;;;;;;;1.00;1.00;;;5.70;99.90;;;;;;4998082;28;20034;-81
2024/01/15 07:27:58;;;;;;;10.52;1.55;;;5.70;99.90;;;;;;4999510;28;20877;-81
2024/01/15 07:30:24;;;;;;;1.60;1.55;;;5.80;99.90;;;;;;5005204;28;20026;-81
2024/01/15 07:32:49;;;;;;;0.10;0.10;;;5.80;99.90;;;;;;5002670;28;20060;-82
2024/01/15 07:35:15;;;;;;;1.35;1.30;;;5.70;99.90;;;;;;4981573;28;20060;-82
2024/01/15 07:37:41;;;;;;;0.35;0.35;;;5.80;99.90;;;;;;4988943;28;20034;-82
2024/01/15 07:40:08;;;;;;;0.10;0.10;;;5.90;99.90;;;;;;4991523;28;20401;-82
2024/01/15 07:42:38;;;;;;;0.10;0.10;;;5.70;99.90;;;;;;4996617;28;20433;-82
2024/01/15 07:45:04;;;;;;;0.40;0.40;;;5.70;99.90;;;;;;4994175;28;20561;-82
2024/01/15 07:47:30;;;;;;;0.10;0.10;;;5.70;99.90;;;;;;4996179;28;20026;-82
2024/01/15 07:49:56;;;;;;;0.77;0.77;;;5.80;99.90;;;;;;4992518;28;20056;-82
2024/01/15 07:52:21;;;;;;;0.10;0.10;;;5.90;99.90;;;;;;4997001;28;20041;-82
2024/01/15 07:54:47;;;;;;;0.50;0.50;;;5.90;99.90;;;;;;5001316;28;20026;-81
2024/01/15 07:57:13;;;;;;;0.10;0.10;;;5.80;99.90;;;;;;4997102;28;20120;-82
2024/01/15 07:59:40;;;;;;;0.10;0.10;;;5.80;99.90;;;;;;5004143;28;20041;-81
2024/01/15 08:02:06;;;;;;;0.10;0.10;;;5.80;99.90;;;;;;4972782;28;20018;-82
2024/01/15 08:04:31;;;;;;;0.10;0.10;;;5.90;99.90;;;;;;4995959;28;20037;-82
2024/01/15 08:06:57;;;;;;;0.55;0.55;;;5.80;99.90;;;;;;4992192;28;20065;-81
2024/01/15 08:09:23;;;;;;;2.03;1.40;;;5.80;99.90;;;;;;4997018;28;20026;-82
2024/01/15 08:11:49;;;;;;;0.13;0.13;;;6.00;99.90;;;;;;4991570;28;20027;-82
2024/01/15 08:14:15;;;;;;;0.10;0.10;;;5.90;99.90;;;;;;4997509;28;20394;-82
2024/01/15 08:16:40;;;;;;;0.10;0.10;;;5.90;99.90;;;;;;4993493;28;20480;-82
2024/01/15 08:19:07;;;;;;;0.10;0.10;;;5.90;99.90;;;;;;4998187;28;20026;-81
2024/01/15 08:21:33;;;;;;;0.20;0.20;;;5.80;99.90;;;;;;4995771;28;20030;-82
2024/01/15 08:24:02;;;;;;;0.10;0.10;;;5.80;99.90;;;;;;5001902;28;21015;-81
2024/01/15 08:26:29;;;;;;;0.10;0.10;;;5.80;99.90;;;;;;4998458;28;20057;-82
2024/01/15 08:28:54;;;;;;;0.10;0.10;;;5.90;99.90;;;;;;5001480;28;20664;-82
2024/01/15 08:31:20;;;;;;;0.45;0.43;;;5.90;99.90;;;;;;5014986;28;20029;-81
2024/01/15 08:33:46;;;;;;;0.10;0.10;;;5.90;99.90;;;;;;5022150;28;20040;-82
2024/01/15 08:36:12;;;;;;;0.10;0.10;;;5.90;99.90;;;;;;5020950;28;20603;-82
2024/01/15 08:38:39;;;;;;;0.10;0.10;;;6.00;99.90;;;;;;5013500;28;20038;-81
2024/01/15 08:41:04;;;;;;;0.23;0.23;;;6.00;99.90;;;;;;5003986;28;20664;-82
2024/01/15 08:43:33;;;;;;;2.00;1.55;;;6.00;99.90;;;;;;5008300;28;20032;-81
2024/01/15 08:45:59;;;;;;;0.10;0.10;;;6.20;99.90;;;;;;5015625;28;20033;-81
2024/01/15 08:48:27;;;;;;;0.25;0.25;;;6.20;99.90;;;;;;5019363;28;20371;-82
2024/01/15 08:50:53;;;;;;;1.17;1.10;;;6.20;99.90;;;;;;5020615;28;20033;-81
2024/01/15 08:53:19;;;;;;;0.63;0.57;;;6.10;99.90;;;;;;5018775;28;20083;-81
2024/01/15 08:55:44;;;;;;;0.10;0.10;;;6.10;99.90;;;;;;5019366;28;20021;-82
2024/01/15 08:58:10;;;;;;;0.10;0.10;;;6.00;99.90;;;;;;5017307;28;20029;-82
2024/01/15 09:00:36;;;;;;;0.10;0.10;;;6.00;99.90;;;;;;5009392;28;20026;-82
2024/01/15 09:03:02;;;;;;;0.00;0.00;;;6.20;99.90;;;;;;5012379;28;20632;-81
2024/01/15 09:05:28;;;;;;;0.10;0.10;;;6.30;99.90;;;;;;5010096;28;20110;-81
2024/01/15 09:07:54;;;;;;;0.10;0.10;;;6.40;99.90;;;;;;5004419;28;20090;-81
2024/01/15 09:10:21;;;;;;;0.40;0.40;;;6.50;99.90;;;;;;5003515;28;20056;-81
2024/01/15 09:12:46;;;;;;;0.23;0.23;;;6.50;99.90;;;;;;5003672;28;20037;-82
2024/01/15 09:15:12;;;;;;;0.80;0.80;;;6.40;99.90;;;;;;4985259;28;20284;-82
2024/01/15 09:17:38;;;;;;;0.10;0.10;;;6.40;99.90;;;;;;4993297;28;20880;-82
2024/01/15 09:20:05;;;;;;;0.47;0.47;;;6.40;99.90;;;;;;5003348;28;20108;-81
2024/01/15 09:22:31;;;;;;;0.10;0.10;;;6.40;99.90;;;;;;5003244;28;20036;-82
2024/01/15 09:24:57;;;;;;;0.73;0.73;;;6.50;99.90;;;;;;4997891;28;20033;-81
2024/01/15 09:27:22;;;;;;;0.10;0.10;;;6.60;99.90;;;;;;4997056;28;20034;-82
2024/01/15 09:29:48;;;;;;;0.10;0.10;;;6.60;99.90;;;;;;4996109;28;20029;-82
2024/01/15 09:32:15;;;;;;;2.23;2.10;;;6.60;99.90;;;;;;5009395;28;20052;-81
2024/01/15 09:34:41;;;;;;;0.10;0.10;;;6.40;99.90;;;;;;5007117;28;20045;-82
2024/01/15 09:37:07;;;;;;;0.10;0.10;;;6.40;99.90;;;;;;5008269;28;20348;-82
2024/01/15 09:39:32;;;;;;;0.10;0.10;;;6.40;99.90;;;;;;5005449;28;20030;-82
2024/01/15 09:41:59;;;;;;;0.25;0.25;;;6.50;99.90;;;;;;5002571;28;20113;-82
2024/01/15 09:44:26;;;;;;;0.20;0.20;;;6.40;99.90;;;;;;5002374;28;20552;-82
2024/01/15 09:46:52;;;;;;;0.28;0.28;;;6.00;99.90;;;;;;5005034;28;20041;-81
2024/01/15 09:49:18;;;;;;;0.20;0.20;;;6.00;99.90;;;;;;5018524;28;20031;-81
2024/01/15 09:51:45;;;;;;;0.10;0.10;;;6.20;99.90;;;;;;5013123;28;20816;-81
2024/01/15 09:54:13;;;;;;;0.10;0.10;;;6.20;99.90;;;;;;5002842;28;20783;-82
2024/01/15 09:56:39;;;;;;;0.08;0.08;;;6.20;99.90;;;;;;4987780;28;20383;-82
2024/01/15 09:59:05;;;;;;;0.10;0.10;;;6.10;99.90;;;;;;5017028;28;20021;-81
2024/01/15 10:01:32;;;;;;;0.70;0.65;;;5.90;99.90;;;;;;5015104;28;20072;-82
2024/01/15 10:04:01;;;;;;;0.10;0.10;;;6.00;99.90;;;;;;5007593;28;20140;-81
2024/01/15 10:06:28;;;;;;;0.10;0.10;;;6.00;99.90;;;;;;4984787;28;20030;-82
2024/01/15 10:08:56;;;;;;;0.10;0.10;;;6.00;99.90;;;;;;5005922;28;20108;-82
2024/01/15 10:11:22;;;;;;;0.25;0.25;;;6.10;99.90;;;;;;5005388;28;20065;-82
2024/01/15 10:13:52;;;;;;;0.10;0.10;;;6.30;99.90;;;;;;5014326;28;20607;-81
2024/01/15 10:16:17;;;;;;;0.10;0.10;;;6.40;99.90;;;;;;5011864;28;20033;-81
2024/01/15 10:18:43;;;;;;;0.47;0.47;;;6.40;99.90;;;;;;5013176;28;20787;-81
2024/01/15 10:21:09;;;;;;;0.10;0.10;;;6.50;99.90;;;;;;5009278;28;20061;-81
2024/01/15 10:23:36;;;;;;;0.10;0.10;;;6.60;99.90;;;;;;4996576;28;20022;-82
2024/01/15 10:26:02;;;;;;;;;;;6.60;99.90;;;;;;5010783;28;20088;-82
2024/01/15 10:28:30;;;;;;;0.10;0.10;;;6.50;99.90;;;;;;5006579;28;19932;-81
2024/01/15 10:30:57;;;;;;;0.30;0.30;;;6.50;99.90;;;;;;5011450;28;20113;-82
2024/01/15 10:33:26;;;;;;;0.98;0.80;;;6.60;99.90;;;;;;4989343;28;20056;-81
2024/01/15 10:35:56;;;;;;;0.20;0.20;;;6.70;99.90;;;;;;5010307;28;20041;-82
2024/01/15 10:38:22;;;;;;;0.03;0.03;;;6.80;99.90;;;;;;5001537;28;20045;-82
2024/01/15 10:40:52;;;;;;;0.10;0.10;;;6.70;99.90;;;;;;5011737;28;20053;-82
2024/01/15 10:43:17;;;;;;;0.38;0.35;;;6.60;99.90;;;;;;5014203;28;20030;-81
2024/01/15 10:45:47;;;;;;;0.10;0.10;;;6.70;99.90;;;;;;5016129;28;20029;-81
2024/01/15 10:48:14;;;;;;;0.10;0.10;;;6.70;99.90;;;;;;5015219;28;20064;-82
2024/01/15 10:50:39;;;;;;;0.08;0.08;;;6.80;99.90;;;;;;5005805;28;20133;-81
2024/01/15 10:53:06;;;;;;;0.10;0.10;;;6.90;99.90;;;;;;4986556;28;20122;-81
2024/01/15 10:55:36;;;;;;;0.45;0.45;;;7.10;99.90;;;;;;5021567;28;20036;-82
2024/01/15 10:58:03;;;;;;;0.10;0.10;;;7.00;99.90;;;;;;5008540;28;20061;-82
2024/01/15 11:00:30;;;;;;;0.10;0.10;;;6.80;99.90;;;;;;5022135;28;20151;-82
2024/01/15 11:02:56;;;;;;;0.05;0.05;;;6.90;99.90;;;;;;5016049;28;20030;-82
2024/01/15 11:05:22;;;;;;;0.10;0.10;;;7.00;99.90;;;;;;5020313;28;20061;-81
2024/01/15 11:07:49;;;;;;;0.10;0.10;;;7.00;99.90;;;;;;4989003;28;20862;-82
2024/01/15 11:10:42;;;;;;;0.10;0.10;;;7.10;99.90;;;;;;4998854;28;20038;-81
2024/01/15 11:13:21;;;;;;;0.10;0.10;;;7.00;99.90;;;;;;5013785;28;20761;-81
2024/01/15 11:15:57;;;;;;;0.00;0.00;;;6.90;99.90;;;;;;5012943;28;20037;-81
2024/01/15 11:18:23;;;;;;;0.10;0.10;;;6.90;99.90;;;;;;5016092;28;20135;-81
2024/01/15 11:21:18;;;;;;;0.45;0.45;;;6.90;99.90;;;;;;5010806;28;20414;-82
2024/01/15 11:23:46;;;;;;;0.13;0.13;;;6.80;99.90;;;;;;4976391;28;20038;-82
2024/01/15 11:26:27;;;;;;;;;;;6.70;99.90;;;;;;5006082;28;20037;-82
2024/01/15 11:28:55;;;;;;;0.10;0.10;;;6.80;99.90;;;;;;5005306;28;19910;-81
2024/01/15 11:31:20;;;;;;;0.10;0.10;;;6.90;99.90;;;;;;5015542;28;20033;-81
2024/01/15 11:33:50;;;;;;;0.25;0.25;;;6.90;99.90;;;;;;5023979;28;20028;-82
2024/01/15 11:36:15;;;;;;;0.10;0.10;;;7.30;99.90;;;;;;5009956;28;20037;-82
2024/01/15 11:38:41;;;;;;;5.75;0.90;;;7.80;99.90;;;;;;5006600;28;20017;-82
2024/01/15 11:41:16;;;;;;;0.10;0.10;;;8.10;99.90;;;;;;5022273;28;20036;-82
2024/01/15 11:43:42;;;;;;;0.10;0.10;;;8.00;99.90;;;;;;5015622;28;20030;-81
2024/01/15 11:46:14;;;;;;;0.10;0.10;;;7.80;99.90;;;;;;5002861;28;20494;-82
2024/01/15 11:48:46;;;;;;;1.65;1.42;;;7.60;99.90;;;;;;5004007;28;20038;-81
2024/01/15 11:51:13;;;;;;;0.10;0.10;;;7.50;99.90;;;;;;5004901;28;20034;-82
2024/01/15 11:53:45;;;;;;;0.10;0.10;;;7.30;99.90;;;;;;5006073;28;20025;-82
2024/01/15 11:56:17;;;;;;;0.10;0.10;;;7.30;99.90;;;;;;5014480;28;20109;-82
2024/01/15 11:58:43;;;;;;;0.30;0.30;;;7.30;99.90;;;;;;4997733;28;20033;-82
2024/01/15 12:01:11;;;;;;;0.10;0.10;;;7.30;99.90;;;;;;5005216;28;20548;-82
2024/01/15 12:03:36;;;;;;;0.10;0.10;;;7.20;99.90;;;;;;4994169;28;20033;-81
2024/01/15 12:06:05;;;;;;;0.10;0.10;;;7.00;99.90;;;;;;5013122;28;20041;-81
2024/01/15 12:08:30;;;;;;;0.10;0.10;;;7.00;99.90;;;;;;4968302;28;20675;-82
2024/01/15 12:10:56;;;;;;;0.32;0.32;;;7.10;99.90;;;;;;5010552;28;20037;-82
2024/01/15 12:13:22;;;;;;;0.10;0.10;;;7.00;99.90;;;;;;5016490;28;20029;-82
2024/01/15 12:15:48;;;;;;;0.17;0.17;;;7.10;99.90;;;;;;5011707;28;20026;-81
2024/01/15 12:18:16;;;;;;;0.20;0.20;;;6.90;99.90;;;;;;5015894;28;20035;-81
2024/01/15 12:20:43;;;;;;;0.30;0.30;;;6.90;99.90;;;;;;5010455;28;20088;-82
2024/01/15 12:23:10;;;;;;;;;;;7.10;99.90;;;;;;5010348;28;20041;-82
2024/01/15 12:25:37;;;;;;;0.10;0.10;;;7.00;99.90;;;;;;5001754;28;19909;-81
2024/01/15 12:28:03;;;;;;;;;;;7.10;99.90;;;;;;5013544;28;20091;-82
2024/01/15 12:30:31;;;;;;;1.07;0.67;;;7.10;99.90;;;;;;5009925;28;20573;-82
2024/01/15 12:32:57;;;;;;;0.43;0.43;;;7.20;99.90;;;;;;5023049;28;20209;-82
2024/01/15 12:35:26;;;;;;;0.10;0.10;;;7.20;99.90;;;;;;5014912;28;20497;-81
2024/01/15 12:37:51;;;;;;;0.28;0.28;;;7.30;99.90;;;;;;5001120;28;20037;-82
2024/01/15 12:40:21;;;;;;;0.10;0.10;;;7.10;99.90;;;;;;5002923;28;20030;-82
2024/01/15 12:42:46;;;;;;;0.17;0.17;;;7.20;99.90;;;;;;5003828;28;20061;-82
2024/01/15 12:45:12;;;;;;;0.15;0.15;;;7.10;99.90;;;;;;5003562;28;20121;-82
2024/01/15 12:47:39;;;;;;;0.10;0.10;;;7.20;99.90;;;;;;5013557;28;20032;-82
2024/01/15 12:50:10;;;;;;;0.10;0.10;;;7.30;99.90;;;;;;5020355;28;20049;-82
2024/01/15 12:52:37;;;;;;;0.00;0.00;;;7.40;99.90;;;;;;5019264;28;20053;-82
2024/01/15 12:55:07;;;;;;;0.20;0.20;;;7.40;99.90;;;;;;5018062;28;20029;-82